Terminal Aerodrome Forecast
Issued by NWS

Home | Current Version | Previous Version | Text Only | Print | Product List | Glossary On
Versions: 1 2 3 4 5 6 7 8 9 10 11 12
000
FTUS41 KBTV 301100
TAFMSS
TAF
KMSS 301120Z 3012/0112 05010KT 5SM BR OVC003
     FM301600 05006KT P6SM BKN006 BKN015
     FM010000 05008KT P6SM SCT006 BKN020=

USA.gov is the U.S. government's official web portal to all federal, state and local government web resources and services.